sensor_id;sensor_type;location;lat;lon;timestamp;P1;durP1;ratioP1;P2;durP2;ratioP2
3571;SDS011;7958;53.024;12.970;2023-07-16T00:00:15;3.60;;;3.30;;
3571;SDS011;7958;53.024;12.970;2023-07-16T00:02:43;5.00;;;3.13;;
3571;SDS011;7958;53.024;12.970;2023-07-16T00:05:10;3.50;;;3.20;;
3571;SDS011;7958;53.024;12.970;2023-07-16T00:07:38;4.17;;;3.77;;
3571;SDS011;7958;53.024;12.970;2023-07-16T00:10:04;5.47;;;3.50;;
3571;SDS011;7958;53.024;12.970;2023-07-16T00:12:32;3.97;;;3.57;;
3571;SDS011;7958;53.024;12.970;2023-07-16T00:14:58;3.10;;;2.90;;
3571;SDS011;7958;53.024;12.970;2023-07-16T00:17:24;5.93;;;3.10;;
3571;SDS011;7958;53.024;12.970;2023-07-16T00:19:51;3.00;;;2.80;;
3571;SDS011;7958;53.024;12.970;2023-07-16T00:22:17;3.57;;;3.27;;
3571;SDS011;7958;53.024;12.970;2023-07-16T00:24:45;4.07;;;3.67;;
3571;SDS011;7958;53.024;12.970;2023-07-16T00:27:11;3.33;;;3.13;;
3571;SDS011;7958;53.024;12.970;2023-07-16T00:29:38;4.00;;;3.63;;
3571;SDS011;7958;53.024;12.970;2023-07-16T00:32:06;3.43;;;3.20;;
3571;SDS011;7958;53.024;12.970;2023-07-16T00:34:33;4.23;;;3.60;;
3571;SDS011;7958;53.024;12.970;2023-07-16T00:36:59;4.60;;;3.27;;
3571;SDS011;7958;53.024;12.970;2023-07-16T00:39:26;7.63;;;3.77;;
3571;SDS011;7958;53.024;12.970;2023-07-16T00:41:55;4.03;;;3.70;;
3571;SDS011;7958;53.024;12.970;2023-07-16T00:44:21;4.23;;;3.83;;
3571;SDS011;7958;53.024;12.970;2023-07-16T00:46:48;4.70;;;4.30;;
3571;SDS011;7958;53.024;12.970;2023-07-16T00:49:14;4.13;;;3.83;;
3571;SDS011;7958;53.024;12.970;2023-07-16T00:51:41;4.67;;;4.07;;
3571;SDS011;7958;53.024;12.970;2023-07-16T00:54:08;7.90;;;3.43;;
3571;SDS011;7958;53.024;12.970;2023-07-16T00:56:35;3.70;;;3.40;;
3571;SDS011;7958;53.024;12.970;2023-07-16T00:59:05;4.80;;;3.73;;
3571;SDS011;7958;53.024;12.970;2023-07-16T01:01:31;4.27;;;3.80;;
3571;SDS011;7958;53.024;12.970;2023-07-16T01:03:57;3.57;;;3.27;;
3571;SDS011;7958;53.024;12.970;2023-07-16T01:06:25;6.33;;;3.33;;
3571;SDS011;7958;53.024;12.970;2023-07-16T01:08:57;4.27;;;3.87;;
3571;SDS011;7958;53.024;12.970;2023-07-16T01:11:25;3.77;;;3.30;;
3571;SDS011;7958;53.024;12.970;2023-07-16T01:13:53;3.37;;;3.07;;
3571;SDS011;7958;53.024;12.970;2023-07-16T01:16:21;3.77;;;3.47;;
3571;SDS011;7958;53.024;12.970;2023-07-16T01:18:48;4.20;;;3.80;;
3571;SDS011;7958;53.024;12.970;2023-07-16T01:21:16;4.00;;;3.70;;
3571;SDS011;7958;53.024;12.970;2023-07-16T01:23:52;4.17;;;3.30;;
3571;SDS011;7958;53.024;12.970;2023-07-16T01:26:28;3.83;;;3.50;;
3571;SDS011;7958;53.024;12.970;2023-07-16T01:31:56;4.03;;;3.73;;
3571;SDS011;7958;53.024;12.970;2023-07-16T01:34:26;4.10;;;3.80;;
3571;SDS011;7958;53.024;12.970;2023-07-16T01:36:55;5.73;;;4.50;;
3571;SDS011;7958;53.024;12.970;2023-07-16T01:39:21;4.00;;;3.70;;
3571;SDS011;7958;53.024;12.970;2023-07-16T01:41:48;4.73;;;3.73;;
3571;SDS011;7958;53.024;12.970;2023-07-16T01:44:14;4.50;;;4.00;;
3571;SDS011;7958;53.024;12.970;2023-07-16T01:46:44;4.10;;;3.60;;
3571;SDS011;7958;53.024;12.970;2023-07-16T01:49:12;3.30;;;3.00;;
3571;SDS011;7958;53.024;12.970;2023-07-16T01:51:38;6.40;;;3.50;;
3571;SDS011;7958;53.024;12.970;2023-07-16T01:54:05;4.57;;;4.17;;
3571;SDS011;7958;53.024;12.970;2023-07-16T01:56:31;5.30;;;3.73;;
3571;SDS011;7958;53.024;12.970;2023-07-16T01:58:58;5.73;;;3.30;;
3571;SDS011;7958;53.024;12.970;2023-07-16T02:01:26;3.63;;;3.33;;
3571;SDS011;7958;53.024;12.970;2023-07-16T02:03:54;3.70;;;3.40;;
3571;SDS011;7958;53.024;12.970;2023-07-16T02:06:21;3.90;;;3.60;;
3571;SDS011;7958;53.024;12.970;2023-07-16T02:08:49;3.30;;;3.03;;
3571;SDS011;7958;53.024;12.970;2023-07-16T02:11:16;3.60;;;3.23;;
3571;SDS011;7958;53.024;12.970;2023-07-16T02:13:43;4.47;;;3.70;;
3571;SDS011;7958;53.024;12.970;2023-07-16T02:16:09;6.17;;;2.90;;
3571;SDS011;7958;53.024;12.970;2023-07-16T02:18:35;3.10;;;2.80;;
3571;SDS011;7958;53.024;12.970;2023-07-16T02:21:03;3.50;;;3.20;;
3571;SDS011;7958;53.024;12.970;2023-07-16T02:23:29;3.47;;;3.10;;
3571;SDS011;7958;53.024;12.970;2023-07-16T02:25:56;5.23;;;3.50;;
3571;SDS011;7958;53.024;12.970;2023-07-16T02:28:22;3.47;;;3.17;;
3571;SDS011;7958;53.024;12.970;2023-07-16T02:30:49;3.53;;;3.23;;
3571;SDS011;7958;53.024;12.970;2023-07-16T02:33:16;4.20;;;3.33;;
3571;SDS011;7958;53.024;12.970;2023-07-16T02:35:45;5.67;;;3.67;;
3571;SDS011;7958;53.024;12.970;2023-07-16T02:38:14;5.17;;;3.93;;
3571;SDS011;7958;53.024;12.970;2023-07-16T02:40:42;3.93;;;3.50;;
3571;SDS011;7958;53.024;12.970;2023-07-16T02:43:09;5.90;;;4.00;;
3571;SDS011;7958;53.024;12.970;2023-07-16T02:45:35;9.20;;;4.17;;
3571;SDS011;7958;53.024;12.970;2023-07-16T02:48:01;5.43;;;4.33;;
3571;SDS011;7958;53.024;12.970;2023-07-16T02:50:34;5.27;;;3.90;;
3571;SDS011;7958;53.024;12.970;2023-07-16T02:53:04;4.97;;;3.90;;
3571;SDS011;7958;53.024;12.970;2023-07-16T02:55:32;4.77;;;4.23;;
3571;SDS011;7958;53.024;12.970;2023-07-16T02:58:02;7.07;;;3.87;;
3571;SDS011;7958;53.024;12.970;2023-07-16T03:00:30;5.60;;;4.73;;
3571;SDS011;7958;53.024;12.970;2023-07-16T03:02:57;4.50;;;4.10;;
3571;SDS011;7958;53.024;12.970;2023-07-16T03:05:24;5.30;;;4.40;;
3571;SDS011;7958;53.024;12.970;2023-07-16T03:07:51;6.57;;;4.63;;
3571;SDS011;7958;53.024;12.970;2023-07-16T03:10:17;4.90;;;4.43;;
3571;SDS011;7958;53.024;12.970;2023-07-16T03:12:45;4.93;;;4.43;;
3571;SDS011;7958;53.024;12.970;2023-07-16T03:15:12;5.70;;;5.20;;
3571;SDS011;7958;53.024;12.970;2023-07-16T03:17:39;4.90;;;4.40;;
3571;SDS011;7958;53.024;12.970;2023-07-16T03:20:06;5.13;;;4.50;;
3571;SDS011;7958;53.024;12.970;2023-07-16T03:22:33;5.93;;;4.33;;
3571;SDS011;7958;53.024;12.970;2023-07-16T03:25:00;6.30;;;4.60;;
3571;SDS011;7958;53.024;12.970;2023-07-16T03:27:27;5.50;;;4.83;;
3571;SDS011;7958;53.024;12.970;2023-07-16T03:29:56;6.27;;;5.50;;
3571;SDS011;7958;53.024;12.970;2023-07-16T03:32:23;5.77;;;5.17;;
3571;SDS011;7958;53.024;12.970;2023-07-16T03:34:49;6.10;;;4.83;;
3571;SDS011;7958;53.024;12.970;2023-07-16T03:37:16;5.53;;;4.70;;
3571;SDS011;7958;53.024;12.970;2023-07-16T03:39:46;5.70;;;5.03;;
3571;SDS011;7958;53.024;12.970;2023-07-16T03:42:12;5.33;;;4.90;;
3571;SDS011;7958;53.024;12.970;2023-07-16T03:44:38;5.57;;;5.07;;
3571;SDS011;7958;53.024;12.970;2023-07-16T03:47:06;7.03;;;4.80;;
3571;SDS011;7958;53.024;12.970;2023-07-16T03:49:32;6.97;;;5.20;;
3571;SDS011;7958;53.024;12.970;2023-07-16T03:51:59;5.10;;;4.70;;
3571;SDS011;7958;53.024;12.970;2023-07-16T03:54:25;6.00;;;5.13;;
3571;SDS011;7958;53.024;12.970;2023-07-16T03:56:52;5.10;;;4.53;;
3571;SDS011;7958;53.024;12.970;2023-07-16T03:59:18;4.97;;;4.60;;
3571;SDS011;7958;53.024;12.970;2023-07-16T04:01:45;7.13;;;5.17;;
3571;SDS011;7958;53.024;12.970;2023-07-16T04:04:13;4.93;;;4.53;;
3571;SDS011;7958;53.024;12.970;2023-07-16T04:06:39;6.80;;;5.10;;
3571;SDS011;7958;53.024;12.970;2023-07-16T04:09:05;5.30;;;4.70;;
3571;SDS011;7958;53.024;12.970;2023-07-16T04:11:32;6.03;;;5.07;;
3571;SDS011;7958;53.024;12.970;2023-07-16T04:13:58;5.87;;;5.17;;
3571;SDS011;7958;53.024;12.970;2023-07-16T04:16:25;5.37;;;4.87;;
3571;SDS011;7958;53.024;12.970;2023-07-16T04:18:52;5.97;;;5.37;;
3571;SDS011;7958;53.024;12.970;2023-07-16T04:21:19;6.97;;;4.87;;
3571;SDS011;7958;53.024;12.970;2023-07-16T04:23:46;6.10;;;5.50;;
3571;SDS011;7958;53.024;12.970;2023-07-16T04:26:12;6.10;;;5.50;;
3571;SDS011;7958;53.024;12.970;2023-07-16T04:28:39;5.77;;;5.23;;
3571;SDS011;7958;53.024;12.970;2023-07-16T04:31:05;6.63;;;5.33;;
3571;SDS011;7958;53.024;12.970;2023-07-16T04:33:31;5.70;;;5.23;;
3571;SDS011;7958;53.024;12.970;2023-07-16T04:36:07;8.50;;;4.97;;
3571;SDS011;7958;53.024;12.970;2023-07-16T04:38:35;5.27;;;4.70;;
3571;SDS011;7958;53.024;12.970;2023-07-16T04:41:02;5.80;;;5.03;;
3571;SDS011;7958;53.024;12.970;2023-07-16T04:43:28;5.80;;;5.20;;
3571;SDS011;7958;53.024;12.970;2023-07-16T04:45:55;5.63;;;5.00;;
3571;SDS011;7958;53.024;12.970;2023-07-16T04:48:21;5.80;;;5.30;;
3571;SDS011;7958;53.024;12.970;2023-07-16T04:50:48;7.47;;;5.13;;
3571;SDS011;7958;53.024;12.970;2023-07-16T04:53:14;5.90;;;5.30;;
3571;SDS011;7958;53.024;12.970;2023-07-16T04:55:45;5.50;;;5.00;;
3571;SDS011;7958;53.024;12.970;2023-07-16T04:58:12;5.30;;;4.87;;
3571;SDS011;7958;53.024;12.970;2023-07-16T05:00:38;6.30;;;5.70;;
3571;SDS011;7958;53.024;12.970;2023-07-16T05:03:05;5.20;;;4.80;;
3571;SDS011;7958;53.024;12.970;2023-07-16T05:05:31;5.90;;;5.30;;
3571;SDS011;7958;53.024;12.970;2023-07-16T05:07:58;5.50;;;5.00;;
3571;SDS011;7958;53.024;12.970;2023-07-16T05:10:25;6.10;;;5.30;;
3571;SDS011;7958;53.024;12.970;2023-07-16T05:12:54;4.83;;;4.43;;
3571;SDS011;7958;53.024;12.970;2023-07-16T05:15:20;5.30;;;4.80;;
3571;SDS011;7958;53.024;12.970;2023-07-16T05:17:47;4.47;;;4.00;;
3571;SDS011;7958;53.024;12.970;2023-07-16T05:20:14;6.07;;;5.10;;
3571;SDS011;7958;53.024;12.970;2023-07-16T05:22:40;4.90;;;4.40;;
3571;SDS011;7958;53.024;12.970;2023-07-16T05:25:07;5.50;;;5.00;;
3571;SDS011;7958;53.024;12.970;2023-07-16T05:27:35;5.00;;;4.20;;
3571;SDS011;7958;53.024;12.970;2023-07-16T05:30:03;6.00;;;4.70;;
3571;SDS011;7958;53.024;12.970;2023-07-16T05:32:31;8.17;;;4.40;;
3571;SDS011;7958;53.024;12.970;2023-07-16T05:34:57;21.83;;;6.00;;
3571;SDS011;7958;53.024;12.970;2023-07-16T05:37:23;8.13;;;6.00;;
3571;SDS011;7958;53.024;12.970;2023-07-16T05:39:49;5.93;;;5.30;;
3571;SDS011;7958;53.024;12.970;2023-07-16T05:42:16;6.27;;;5.13;;
3571;SDS011;7958;53.024;12.970;2023-07-16T05:44:42;5.27;;;4.70;;
3571;SDS011;7958;53.024;12.970;2023-07-16T05:47:12;5.47;;;5.07;;
3571;SDS011;7958;53.024;12.970;2023-07-16T05:49:38;8.00;;;6.07;;
3571;SDS011;7958;53.024;12.970;2023-07-16T05:52:05;5.90;;;5.30;;
3571;SDS011;7958;53.024;12.970;2023-07-16T05:54:33;6.00;;;5.50;;
3571;SDS011;7958;53.024;12.970;2023-07-16T05:57:00;6.50;;;5.90;;
3571;SDS011;7958;53.024;12.970;2023-07-16T05:59:26;7.40;;;5.80;;
3571;SDS011;7958;53.024;12.970;2023-07-16T06:01:53;7.23;;;5.73;;
3571;SDS011;7958;53.024;12.970;2023-07-16T06:04:21;6.20;;;5.60;;
3571;SDS011;7958;53.024;12.970;2023-07-16T06:06:48;7.97;;;6.27;;
3571;SDS011;7958;53.024;12.970;2023-07-16T06:09:14;7.43;;;6.23;;
3571;SDS011;7958;53.024;12.970;2023-07-16T06:11:40;7.87;;;6.23;;
3571;SDS011;7958;53.024;12.970;2023-07-16T06:14:08;6.53;;;5.93;;
3571;SDS011;7958;53.024;12.970;2023-07-16T06:16:34;6.73;;;6.03;;
3571;SDS011;7958;53.024;12.970;2023-07-16T06:19:01;9.03;;;7.10;;
3571;SDS011;7958;53.024;12.970;2023-07-16T06:21:29;7.80;;;7.10;;
3571;SDS011;7958;53.024;12.970;2023-07-16T06:23:56;10.60;;;7.60;;
3571;SDS011;7958;53.024;12.970;2023-07-16T06:26:22;7.43;;;6.77;;
3571;SDS011;7958;53.024;12.970;2023-07-16T06:28:49;8.60;;;6.17;;
3571;SDS011;7958;53.024;12.970;2023-07-16T06:31:15;6.53;;;5.90;;
3571;SDS011;7958;53.024;12.970;2023-07-16T06:33:42;5.97;;;5.40;;
3571;SDS011;7958;53.024;12.970;2023-07-16T06:36:09;5.50;;;4.70;;
3571;SDS011;7958;53.024;12.970;2023-07-16T06:38:37;4.40;;;4.03;;
3571;SDS011;7958;53.024;12.970;2023-07-16T06:41:03;4.87;;;3.80;;
3571;SDS011;7958;53.024;12.970;2023-07-16T06:43:30;4.27;;;3.87;;
3571;SDS011;7958;53.024;12.970;2023-07-16T06:45:57;5.40;;;4.90;;
3571;SDS011;7958;53.024;12.970;2023-07-16T06:48:23;6.00;;;3.50;;
3571;SDS011;7958;53.024;12.970;2023-07-16T06:50:49;4.97;;;4.20;;
3571;SDS011;7958;53.024;12.970;2023-07-16T06:53:19;3.83;;;3.47;;
3571;SDS011;7958;53.024;12.970;2023-07-16T06:55:48;5.00;;;4.30;;
3571;SDS011;7958;53.024;12.970;2023-07-16T06:58:15;5.67;;;3.33;;
3571;SDS011;7958;53.024;12.970;2023-07-16T07:00:41;3.10;;;2.80;;
3571;SDS011;7958;53.024;12.970;2023-07-16T07:03:08;3.00;;;2.80;;
3571;SDS011;7958;53.024;12.970;2023-07-16T07:05:34;5.93;;;3.00;;
3571;SDS011;7958;53.024;12.970;2023-07-16T07:08:02;4.03;;;3.73;;
3571;SDS011;7958;53.024;12.970;2023-07-16T07:10:31;3.40;;;3.10;;
3571;SDS011;7958;53.024;12.970;2023-07-16T07:13:01;4.00;;;3.10;;
3571;SDS011;7958;53.024;12.970;2023-07-16T07:15:28;3.80;;;3.50;;
3571;SDS011;7958;53.024;12.970;2023-07-16T07:17:54;15.90;;;8.63;;
3571;SDS011;7958;53.024;12.970;2023-07-16T07:20:21;4.10;;;3.00;;
3571;SDS011;7958;53.024;12.970;2023-07-16T07:22:48;3.10;;;2.40;;
3571;SDS011;7958;53.024;12.970;2023-07-16T07:25:15;2.37;;;2.20;;
3571;SDS011;7958;53.024;12.970;2023-07-16T07:27:47;2.23;;;2.03;;
3571;SDS011;7958;53.024;12.970;2023-07-16T07:30:16;4.33;;;2.63;;
3571;SDS011;7958;53.024;12.970;2023-07-16T07:32:42;2.80;;;2.60;;
3571;SDS011;7958;53.024;12.970;2023-07-16T07:35:09;3.40;;;2.83;;
3571;SDS011;7958;53.024;12.970;2023-07-16T07:37:35;5.70;;;2.80;;
3571;SDS011;7958;53.024;12.970;2023-07-16T07:40:02;6.27;;;4.23;;
3571;SDS011;7958;53.024;12.970;2023-07-16T07:42:29;2.60;;;2.40;;
3571;SDS011;7958;53.024;12.970;2023-07-16T07:44:56;3.00;;;2.43;;
3571;SDS011;7958;53.024;12.970;2023-07-16T07:47:25;2.67;;;2.47;;
3571;SDS011;7958;53.024;12.970;2023-07-16T07:49:55;3.63;;;2.10;;
3571;SDS011;7958;53.024;12.970;2023-07-16T07:52:22;2.20;;;1.97;;
3571;SDS011;7958;53.024;12.970;2023-07-16T07:54:53;2.20;;;2.00;;
3571;SDS011;7958;53.024;12.970;2023-07-16T07:57:19;3.17;;;2.53;;
3571;SDS011;7958;53.024;12.970;2023-07-16T07:59:46;2.03;;;1.83;;
3571;SDS011;7958;53.024;12.970;2023-07-16T08:02:12;2.50;;;1.80;;
3571;SDS011;7958;53.024;12.970;2023-07-16T08:04:40;1.80;;;1.70;;
3571;SDS011;7958;53.024;12.970;2023-07-16T08:07:09;2.80;;;2.17;;
3571;SDS011;7958;53.024;12.970;2023-07-16T08:09:42;2.63;;;2.17;;
3571;SDS011;7958;53.024;12.970;2023-07-16T08:12:10;3.77;;;2.13;;
3571;SDS011;7958;53.024;12.970;2023-07-16T08:14:39;2.93;;;2.03;;
3571;SDS011;7958;53.024;12.970;2023-07-16T08:17:06;4.00;;;2.00;;
3571;SDS011;7958;53.024;12.970;2023-07-16T08:19:35;1.93;;;1.80;;
3571;SDS011;7958;53.024;12.970;2023-07-16T08:22:04;1.97;;;1.77;;
3571;SDS011;7958;53.024;12.970;2023-07-16T08:24:31;1.93;;;1.80;;
3571;SDS011;7958;53.024;12.970;2023-07-16T08:26:58;5.37;;;2.00;;
3571;SDS011;7958;53.024;12.970;2023-07-16T08:29:24;4.27;;;2.47;;
3571;SDS011;7958;53.024;12.970;2023-07-16T08:31:54;2.30;;;2.00;;
3571;SDS011;7958;53.024;12.970;2023-07-16T08:34:20;3.30;;;2.10;;
3571;SDS011;7958;53.024;12.970;2023-07-16T08:36:47;2.33;;;2.17;;
3571;SDS011;7958;53.024;12.970;2023-07-16T08:39:16;1.70;;;1.60;;
3571;SDS011;7958;53.024;12.970;2023-07-16T08:41:44;4.03;;;2.17;;
3571;SDS011;7958;53.024;12.970;2023-07-16T08:44:11;2.37;;;2.20;;
3571;SDS011;7958;53.024;12.970;2023-07-16T08:46:39;3.77;;;2.23;;
3571;SDS011;7958;53.024;12.970;2023-07-16T08:49:07;2.97;;;2.37;;
3571;SDS011;7958;53.024;12.970;2023-07-16T08:51:34;2.50;;;1.90;;
3571;SDS011;7958;53.024;12.970;2023-07-16T08:54:01;3.57;;;2.10;;
3571;SDS011;7958;53.024;12.970;2023-07-16T08:56:28;4.80;;;2.10;;
3571;SDS011;7958;53.024;12.970;2023-07-16T08:58:56;1.70;;;1.60;;
3571;SDS011;7958;53.024;12.970;2023-07-16T09:01:23;2.10;;;1.97;;
3571;SDS011;7958;53.024;12.970;2023-07-16T09:03:50;2.50;;;1.80;;
3571;SDS011;7958;53.024;12.970;2023-07-16T09:06:20;1.90;;;1.80;;
3571;SDS011;7958;53.024;12.970;2023-07-16T09:08:47;1.70;;;1.60;;
3571;SDS011;7958;53.024;12.970;2023-07-16T09:11:16;2.00;;;1.90;;
3571;SDS011;7958;53.024;12.970;2023-07-16T09:13:47;1.83;;;1.63;;
3571;SDS011;7958;53.024;12.970;2023-07-16T09:16:15;2.10;;;1.90;;
3571;SDS011;7958;53.024;12.970;2023-07-16T09:18:55;1.80;;;1.70;;
3571;SDS011;7958;53.024;12.970;2023-07-16T09:21:30;2.83;;;2.10;;
3571;SDS011;7958;53.024;12.970;2023-07-16T09:23:59;2.47;;;1.90;;
3571;SDS011;7958;53.024;12.970;2023-07-16T09:26:30;2.93;;;1.97;;
3571;SDS011;7958;53.024;12.970;2023-07-16T09:28:58;4.73;;;1.80;;
3571;SDS011;7958;53.024;12.970;2023-07-16T09:31:24;4.30;;;2.70;;
3571;SDS011;7958;53.024;12.970;2023-07-16T09:33:53;3.80;;;2.10;;
3571;SDS011;7958;53.024;12.970;2023-07-16T09:36:23;4.60;;;1.70;;
3571;SDS011;7958;53.024;12.970;2023-07-16T09:38:51;4.67;;;2.10;;
3571;SDS011;7958;53.024;12.970;2023-07-16T09:44:22;2.10;;;1.90;;
3571;SDS011;7958;53.024;12.970;2023-07-16T09:46:49;2.00;;;1.80;;
3571;SDS011;7958;53.024;12.970;2023-07-16T09:49:16;2.37;;;2.17;;
3571;SDS011;7958;53.024;12.970;2023-07-16T09:51:45;4.43;;;1.97;;
3571;SDS011;7958;53.024;12.970;2023-07-16T09:54:14;6.30;;;2.27;;
3571;SDS011;7958;53.024;12.970;2023-07-16T09:56:43;1.97;;;1.73;;
3571;SDS011;7958;53.024;12.970;2023-07-16T09:59:11;2.50;;;1.83;;
3571;SDS011;7958;53.024;12.970;2023-07-16T10:01:42;2.70;;;1.90;;
3571;SDS011;7958;53.024;12.970;2023-07-16T10:04:12;2.00;;;1.90;;
3571;SDS011;7958;53.024;12.970;2023-07-16T10:06:52;3.67;;;2.00;;
3571;SDS011;7958;53.024;12.970;2023-07-16T10:09:36;3.07;;;2.10;;
3571;SDS011;7958;53.024;12.970;2023-07-16T10:12:12;1.77;;;1.67;;
3571;SDS011;7958;53.024;12.970;2023-07-16T10:14:44;2.57;;;1.80;;
3571;SDS011;7958;53.024;12.970;2023-07-16T10:17:17;2.90;;;2.10;;
3571;SDS011;7958;53.024;12.970;2023-07-16T10:19:51;2.37;;;2.17;;
3571;SDS011;7958;53.024;12.970;2023-07-16T10:22:30;3.13;;;2.37;;
3571;SDS011;7958;53.024;12.970;2023-07-16T10:24:57;1.80;;;1.70;;
3571;SDS011;7958;53.024;12.970;2023-07-16T10:27:29;4.23;;;1.90;;
3571;SDS011;7958;53.024;12.970;2023-07-16T10:29:57;4.50;;;2.13;;
3571;SDS011;7958;53.024;12.970;2023-07-16T10:32:30;6.60;;;2.10;;
3571;SDS011;7958;53.024;12.970;2023-07-16T10:34:58;2.20;;;2.00;;
3571;SDS011;7958;53.024;12.970;2023-07-16T10:37:26;2.37;;;2.17;;
3571;SDS011;7958;53.024;12.970;2023-07-16T10:39:56;2.40;;;1.80;;
3571;SDS011;7958;53.024;12.970;2023-07-16T10:42:23;3.20;;;2.13;;
3571;SDS011;7958;53.024;12.970;2023-07-16T10:44:51;2.30;;;1.77;;
3571;SDS011;7958;53.024;12.970;2023-07-16T10:47:20;1.80;;;1.70;;
3571;SDS011;7958;53.024;12.970;2023-07-16T10:49:52;3.87;;;1.80;;
3571;SDS011;7958;53.024;12.970;2023-07-16T10:52:19;2.17;;;1.97;;
3571;SDS011;7958;53.024;12.970;2023-07-16T10:54:46;3.70;;;1.57;;
3571;SDS011;7958;53.024;12.970;2023-07-16T10:57:13;5.13;;;1.70;;
3571;SDS011;7958;53.024;12.970;2023-07-16T10:59:44;1.93;;;1.83;;
3571;SDS011;7958;53.024;12.970;2023-07-16T11:02:13;3.10;;;1.80;;
3571;SDS011;7958;53.024;12.970;2023-07-16T11:04:49;2.20;;;2.00;;
3571;SDS011;7958;53.024;12.970;2023-07-16T11:07:27;2.07;;;1.80;;
3571;SDS011;7958;53.024;12.970;2023-07-16T11:09:55;1.93;;;1.80;;
3571;SDS011;7958;53.024;12.970;2023-07-16T11:12:23;2.77;;;1.70;;
3571;SDS011;7958;53.024;12.970;2023-07-16T11:14:56;2.80;;;1.80;;
3571;SDS011;7958;53.024;12.970;2023-07-16T11:17:25;1.87;;;1.67;;
3571;SDS011;7958;53.024;12.970;2023-07-16T11:19:59;1.70;;;1.60;;
3571;SDS011;7958;53.024;12.970;2023-07-16T11:22:27;4.77;;;2.07;;
3571;SDS011;7958;53.024;12.970;2023-07-16T11:24:54;4.30;;;2.10;;
3571;SDS011;7958;53.024;12.970;2023-07-16T11:27:37;3.53;;;1.93;;
3571;SDS011;7958;53.024;12.970;2023-07-16T11:30:09;2.27;;;2.00;;
3571;SDS011;7958;53.024;12.970;2023-07-16T11:32:41;2.37;;;2.17;;
3571;SDS011;7958;53.024;12.970;2023-07-16T11:35:08;4.00;;;2.00;;
3571;SDS011;7958;53.024;12.970;2023-07-16T11:37:46;1.90;;;1.80;;
3571;SDS011;7958;53.024;12.970;2023-07-16T11:40:14;2.20;;;2.00;;
3571;SDS011;7958;53.024;12.970;2023-07-16T11:42:42;2.90;;;2.20;;
3571;SDS011;7958;53.024;12.970;2023-07-16T11:45:15;4.07;;;1.90;;
3571;SDS011;7958;53.024;12.970;2023-07-16T11:47:44;2.53;;;2.10;;
3571;SDS011;7958;53.024;12.970;2023-07-16T11:50:14;2.30;;;1.90;;
3571;SDS011;7958;53.024;12.970;2023-07-16T11:52:41;5.40;;;2.40;;
3571;SDS011;7958;53.024;12.970;2023-07-16T11:55:09;3.90;;;1.77;;
3571;SDS011;7958;53.024;12.970;2023-07-16T11:57:36;2.30;;;2.10;;
3571;SDS011;7958;53.024;12.970;2023-07-16T12:00:05;2.00;;;1.80;;
3571;SDS011;7958;53.024;12.970;2023-07-16T12:02:33;2.63;;;2.30;;
3571;SDS011;7958;53.024;12.970;2023-07-16T12:05:00;7.53;;;2.00;;
3571;SDS011;7958;53.024;12.970;2023-07-16T12:07:30;3.57;;;2.20;;
3571;SDS011;7958;53.024;12.970;2023-07-16T12:10:00;2.30;;;2.10;;
3571;SDS011;7958;53.024;12.970;2023-07-16T12:12:30;2.70;;;2.33;;
3571;SDS011;7958;53.024;12.970;2023-07-16T12:15:04;4.37;;;1.90;;
3571;SDS011;7958;53.024;12.970;2023-07-16T12:17:33;2.37;;;1.90;;
3571;SDS011;7958;53.024;12.970;2023-07-16T12:20:02;1.87;;;1.77;;
3571;SDS011;7958;53.024;12.970;2023-07-16T12:22:29;2.43;;;1.67;;
3571;SDS011;7958;53.024;12.970;2023-07-16T12:24:56;1.90;;;1.80;;
3571;SDS011;7958;53.024;12.970;2023-07-16T12:27:22;2.03;;;1.87;;
3571;SDS011;7958;53.024;12.970;2023-07-16T12:29:52;3.77;;;2.27;;
3571;SDS011;7958;53.024;12.970;2023-07-16T12:32:19;2.20;;;2.00;;
3571;SDS011;7958;53.024;12.970;2023-07-16T12:34:46;2.80;;;2.20;;
3571;SDS011;7958;53.024;12.970;2023-07-16T12:37:18;4.23;;;1.90;;
3571;SDS011;7958;53.024;12.970;2023-07-16T12:39:45;2.87;;;1.60;;
3571;SDS011;7958;53.024;12.970;2023-07-16T12:42:15;3.10;;;1.83;;
3571;SDS011;7958;53.024;12.970;2023-07-16T12:44:43;1.90;;;1.80;;
3571;SDS011;7958;53.024;12.970;2023-07-16T12:47:22;2.13;;;1.80;;
3571;SDS011;7958;53.024;12.970;2023-07-16T12:49:49;5.63;;;2.23;;
3571;SDS011;7958;53.024;12.970;2023-07-16T12:52:30;2.23;;;1.73;;
3571;SDS011;7958;53.024;12.970;2023-07-16T12:54:57;1.97;;;1.80;;
3571;SDS011;7958;53.024;12.970;2023-07-16T12:57:26;3.57;;;1.73;;
3571;SDS011;7958;53.024;12.970;2023-07-16T12:59:54;2.73;;;1.80;;
3571;SDS011;7958;53.024;12.970;2023-07-16T13:02:23;5.30;;;1.53;;
3571;SDS011;7958;53.024;12.970;2023-07-16T13:04:54;2.13;;;1.50;;
3571;SDS011;7958;53.024;12.970;2023-07-16T13:07:24;1.90;;;1.80;;
3571;SDS011;7958;53.024;12.970;2023-07-16T13:09:51;3.93;;;2.27;;
3571;SDS011;7958;53.024;12.970;2023-07-16T13:12:18;3.77;;;2.17;;
3571;SDS011;7958;53.024;12.970;2023-07-16T13:14:45;5.40;;;1.90;;
3571;SDS011;7958;53.024;12.970;2023-07-16T13:17:11;1.80;;;1.67;;
3571;SDS011;7958;53.024;12.970;2023-07-16T13:19:57;2.43;;;1.90;;
3571;SDS011;7958;53.024;12.970;2023-07-16T13:22:28;1.87;;;1.77;;
3571;SDS011;7958;53.024;12.970;2023-07-16T13:24:54;4.00;;;2.00;;
3571;SDS011;7958;53.024;12.970;2023-07-16T13:27:21;1.80;;;1.70;;
3571;SDS011;7958;53.024;12.970;2023-07-16T13:29:48;2.07;;;1.60;;
3571;SDS011;7958;53.024;12.970;2023-07-16T13:32:15;2.13;;;1.60;;
3571;SDS011;7958;53.024;12.970;2023-07-16T13:34:41;4.40;;;1.80;;
3571;SDS011;7958;53.024;12.970;2023-07-16T13:37:10;8.50;;;1.97;;
3571;SDS011;7958;53.024;12.970;2023-07-16T13:39:37;3.90;;;1.80;;
3571;SDS011;7958;53.024;12.970;2023-07-16T13:42:04;3.20;;;1.50;;
3571;SDS011;7958;53.024;12.970;2023-07-16T13:44:34;2.93;;;1.70;;
3571;SDS011;7958;53.024;12.970;2023-07-16T13:47:01;2.57;;;1.80;;
3571;SDS011;7958;53.024;12.970;2023-07-16T13:49:27;1.40;;;1.30;;
3571;SDS011;7958;53.024;12.970;2023-07-16T13:51:54;2.07;;;1.87;;
3571;SDS011;7958;53.024;12.970;2023-07-16T13:54:23;3.00;;;2.23;;
3571;SDS011;7958;53.024;12.970;2023-07-16T13:56:49;2.17;;;1.60;;
3571;SDS011;7958;53.024;12.970;2023-07-16T13:59:16;2.30;;;1.77;;
3571;SDS011;7958;53.024;12.970;2023-07-16T14:01:42;5.10;;;2.10;;
3571;SDS011;7958;53.024;12.970;2023-07-16T14:04:08;2.20;;;1.70;;
3571;SDS011;7958;53.024;12.970;2023-07-16T14:06:38;5.53;;;2.10;;
3571;SDS011;7958;53.024;12.970;2023-07-16T14:09:05;1.83;;;1.63;;
3571;SDS011;7958;53.024;12.970;2023-07-16T14:11:32;2.20;;;1.60;;
3571;SDS011;7958;53.024;12.970;2023-07-16T14:13:59;4.03;;;1.83;;
3571;SDS011;7958;53.024;12.970;2023-07-16T14:16:26;2.97;;;1.90;;
3571;SDS011;7958;53.024;12.970;2023-07-16T14:18:53;1.80;;;1.70;;
3571;SDS011;7958;53.024;12.970;2023-07-16T14:21:19;3.43;;;1.87;;
3571;SDS011;7958;53.024;12.970;2023-07-16T14:23:46;3.27;;;1.70;;
3571;SDS011;7958;53.024;12.970;2023-07-16T14:26:15;3.90;;;1.60;;
3571;SDS011;7958;53.024;12.970;2023-07-16T14:28:46;2.30;;;1.70;;
3571;SDS011;7958;53.024;12.970;2023-07-16T14:31:16;3.13;;;1.60;;
3571;SDS011;7958;53.024;12.970;2023-07-16T14:33:43;1.40;;;1.30;;
3571;SDS011;7958;53.024;12.970;2023-07-16T14:36:09;1.70;;;1.60;;
3571;SDS011;7958;53.024;12.970;2023-07-16T14:38:36;1.70;;;1.60;;
3571;SDS011;7958;53.024;12.970;2023-07-16T14:41:05;1.63;;;1.50;;
3571;SDS011;7958;53.024;12.970;2023-07-16T14:43:34;1.53;;;1.43;;
3571;SDS011;7958;53.024;12.970;2023-07-16T14:46:02;3.40;;;1.77;;
3571;SDS011;7958;53.024;12.970;2023-07-16T14:48:29;2.73;;;1.43;;
3571;SDS011;7958;53.024;12.970;2023-07-16T14:50:55;2.00;;;1.50;;
3571;SDS011;7958;53.024;12.970;2023-07-16T14:53:22;1.63;;;1.53;;
3571;SDS011;7958;53.024;12.970;2023-07-16T14:55:48;6.20;;;1.97;;
3571;SDS011;7958;53.024;12.970;2023-07-16T14:58:17;2.13;;;1.93;;
3571;SDS011;7958;53.024;12.970;2023-07-16T15:00:54;2.30;;;1.70;;
3571;SDS011;7958;53.024;12.970;2023-07-16T15:03:23;3.30;;;2.00;;
3571;SDS011;7958;53.024;12.970;2023-07-16T15:05:49;3.20;;;1.80;;
3571;SDS011;7958;53.024;12.970;2023-07-16T15:08:21;3.43;;;1.93;;
3571;SDS011;7958;53.024;12.970;2023-07-16T15:10:48;2.23;;;1.80;;